Latest Weather Observations for Narrabri

IDN60801

Issued at 10:35 pm EDT Friday 28 November 2014 (issued every 30 minutes, with the page automatically refreshed every 10 minutes)

About weather observations | Map of weather stations | Latest weather observations for NSW | Other Formats
Station Details ID: 054038 Name: NARRABRI AIRPORT AWS Lat: -30.32 Lon: 149.83 Height: 229.02 m
Data from the previous 72 hours. | See also: Recent months at Narrabri
Date/Time
EDT
Temp
°C
App
Temp
°C
Dew
Point
Rel
Hum
%
Delta-T
°C
Wind Press
QNH
hPa
Press
MSL
hPa
Rain
since 9 am
mm
Dir
 
Spd
km/h
Gust
km/h
Spd
kts
Gust
kts
28/10:30pm 25.6 21.5 11.4 41 8.1 NNE 24 41 13 22 1016.6 1015.5 0.0
28/10:00pm 26.4 22.0 11.7 40 8.5 NNE 26 35 14 19 1016.3 1015.2 0.0
28/09:30pm 27.4 23.9 11.0 36 9.4 NNE 20 28 11 15 1015.8 1014.8 0.0
28/09:00pm 27.2 24.9 5.5 25 11.3 SSE 7 9 4 5 1014.6 1013.5 0.0
28/08:30pm 27.3 24.6 5.6 25 11.3 SSE 9 11 5 6 1014.3 1013.2 0.0
28/08:00pm 28.4 25.5 4.6 22 12.3 SSE 9 13 5 7 1014.0 1012.9 0.0
28/07:30pm 30.4 26.8 4.9 20 13.4 SSE 13 17 7 9 1013.8 1012.7 0.0
28/07:00pm 31.6 27.9 4.4 18 14.3 SSE 13 19 7 10 1013.6 1012.5 0.0
28/06:30pm 32.0 28.0 4.7 18 14.4 SSE 15 20 8 11 1013.5 1012.4 0.0
28/06:00pm 31.6 27.7 3.6 17 14.5 SSE 13 19 7 10 1013.5 1012.4 0.0
28/05:30pm 32.8 29.1 4.6 17 15.0 S 13 19 7 10 1013.4 1012.3 0.0
28/05:00pm 33.1 29.3 5.6 18 14.8 SW 15 22 8 12 1013.6 1012.5 0.0
28/04:30pm 32.7 29.7 6.1 19 14.4 SW 11 17 6 9 1013.9 1012.8 0.0
28/04:00pm 33.2 28.6 6.5 19 14.6 SSW 20 28 11 15 1014.4 1013.3 0.0
28/03:30pm 33.5 30.5 7.5 20 14.5 S 13 24 7 13 1014.8 1013.7 0.0
28/03:00pm 33.1 31.1 8.5 22 13.9 NNW 9 17 5 9 1015.2 1014.1 0.0
28/02:30pm 32.5 30.3 9.3 24 13.2 W 11 20 6 11 1015.8 1014.8 0.0
28/02:00pm 32.1 29.6 9.6 25 12.9 SW 13 20 7 11 1016.3 1015.2 0.0
28/01:30pm 30.7 28.9 9.6 27 12.0 WSW 9 15 5 8 1016.9 1015.8 0.0
28/01:00pm 30.3 27.7 9.2 27 11.9 SW 13 20 7 11 1017.5 1016.4 0.0
28/12:30pm 29.8 28.0 9.3 28 11.6 NNW 9 13 5 7 1018.2 1017.1 0.0
28/12:00pm 29.9 28.6 9.9 29 11.4 E 7 17 4 9 1018.6 1017.5 0.0
28/11:30am 28.4 27.0 9.6 31 10.6 NNW 7 17 4 9 1018.9 1017.8 0.0
28/11:00am 27.6 26.2 9.0 31 10.3 NNE 6 13 3 7 1019.3 1018.3 0.0
28/10:30am 26.8 24.3 8.3 31 10.1 E 11 17 6 9 1019.5 1018.5 0.0
28/10:00am 25.7 23.7 8.7 34 9.3 E 9 17 5 9 1019.6 1018.6 0.0
28/09:30am 24.5 22.9 8.9 37 8.5 SSE 7 13 4 7 1019.8 1018.8 0.0
28/09:00am 23.6 22.0 10.3 43 7.4 SSE 9 17 5 9 1019.9 1018.9 -
28/08:30am 22.9 20.4 11.0 47 6.7 SE 15 20 8 11 1019.8 1018.8 -
28/08:00am 21.5 18.7 11.5 53 5.6 SE 17 26 9 14 1019.6 1018.6 -
28/07:30am 20.0 17.0 12.0 60 4.5 SE 19 28 10 15 1019.3 1018.3 -
28/07:00am 18.6 15.5 11.7 64 3.8 SSE 19 28 10 15 1018.9 1017.8 -
28/06:30am 17.7 14.4 11.7 68 3.3 SSE 20 28 11 15 1018.5 1017.4 -
28/06:00am 17.5 14.1 11.3 67 3.4 SSE 20 28 11 15 1018.2 1017.1 -
28/05:30am 17.7 14.2 11.0 65 3.7 SSE 20 32 11 17 1018.0 1016.9 -
28/05:00am 18.0 14.7 10.9 63 3.9 SSE 19 24 10 13 1017.7 1016.6 -
28/04:30am 18.6 15.2 10.4 59 4.4 SSE 19 24 10 13 1017.3 1016.2 -
28/04:00am 19.5 16.6 9.7 53 5.3 SSE 15 22 8 12 1017.2 1016.1 -
28/03:30am 19.9 16.5 9.2 50 5.7 SSE 17 26 9 14 1017.1 1016.0 -
28/03:00am 20.4 16.5 9.3 49 5.9 SSE 20 26 11 14 1017.2 1016.1 -
28/02:30am 20.6 17.1 8.9 47 6.2 SSE 17 24 9 13 1017.2 1016.1 -
28/02:00am 21.0 17.3 9.3 47 6.3 SE 19 24 10 13 1017.1 1016.0 -
28/01:30am 21.3 17.8 10.2 49 6.1 SSE 19 30 10 16 1017.2 1016.1 -
28/01:00am 21.4 18.1 10.9 51 5.8 SSE 19 26 10 14 1017.2 1016.1 -
28/12:30am 21.8 19.0 11.2 51 5.9 SSE 17 24 9 13 1017.0 1015.9 0.0
28/12:00am 22.4 19.7 11.8 51 6.0 SSE 17 24 9 13 1017.0 1015.9 0.0
 
Date/Time
EDT
Temp
°C
App
Temp
°C
Dew
Point
Rel
Hum
%
Delta-T
°C
Wind Press
QNH
hPa
Press
MSL
hPa
Rain
since 9 am
mm
Dir
 
Spd
km/h
Gust
km/h
Spd
kts
Gust
kts
27/11:30pm 22.8 20.7 12.4 52 6.0 SE 15 22 8 12 1017.0 1015.9 0.0
27/11:00pm 23.4 21.3 12.4 50 6.3 SE 15 24 8 13 1016.8 1015.7 0.0
27/10:30pm 24.3 21.2 12.3 47 6.9 ESE 20 32 11 17 1016.6 1015.5 0.0
27/10:00pm 24.8 20.8 11.7 44 7.5 SE 24 37 13 20 1016.1 1015.1 0.0
27/09:30pm 25.2 20.6 12.4 45 7.4 SE 28 37 15 20 1015.7 1014.7 0.0
27/09:00pm 26.0 21.0 12.1 42 8.1 SE 30 46 16 25 1015.3 1014.3 0.0
27/08:51pm 26.3 21.6 12.0 41 8.3 SE 28 46 15 25 1015.1 1014.0 0.0
27/08:30pm 26.5 21.9 12.2 41 8.3 SSE 28 44 15 24 1014.9 1013.8 0.0
27/08:21pm 26.5 21.1 12.2 41 8.3 SSE 32 50 17 27 1014.9 1013.8 0.0
27/08:00pm 27.3 21.7 12.1 39 8.9 SSE 33 46 18 25 1014.6 1013.5 0.0
27/07:40pm 28.3 22.6 11.8 36 9.6 SSE 33 52 18 28 1014.4 1013.3 0.0
27/07:30pm 28.8 23.2 11.4 34 10.1 SE 32 48 17 26 1014.2 1013.1 0.0
27/07:04pm 30.3 25.1 10.3 29 11.5 SSE 28 48 15 26 1013.6 1012.5 0.0
27/07:00pm 31.0 27.1 9.3 26 12.3 SE 20 35 11 19 1013.5 1012.4 0.0
27/06:30pm 32.6 28.2 7.4 21 14.0 SSE 20 26 11 14 1013.1 1012.0 0.0
27/06:00pm 32.9 28.6 7.7 21 14.1 SE 20 28 11 15 1012.8 1011.7 0.0
27/05:30pm 33.8 29.4 4.5 16 15.6 SSE 17 24 9 13 1012.7 1011.6 0.0
27/05:00pm 33.8 31.3 4.5 16 15.6 S 7 13 4 7 1012.8 1011.7 0.0
27/04:30pm 33.0 29.0 4.7 17 15.1 ESE 15 22 8 12 1012.9 1011.8 0.0
27/04:00pm 33.2 28.9 7.2 20 14.4 ESE 19 33 10 18 1013.3 1012.2 0.0
27/03:30pm 32.1 27.9 5.6 19 14.2 SSE 17 24 9 13 1013.6 1012.5 0.0
27/03:00pm 32.9 28.8 4.6 17 15.0 WNW 15 26 8 14 1014.0 1012.9 0.0
27/02:30pm 33.6 28.4 3.4 15 15.8 S 20 24 11 13 1014.3 1013.2 0.0
27/02:00pm 32.2 28.9 0.3 13 15.7 N 7 15 4 8 1014.6 1013.5 0.0
27/01:30pm 32.6 28.0 3.5 16 15.1 W 17 24 9 13 1014.9 1013.8 0.0
27/01:00pm 31.6 29.2 5.2 19 14.0 W 7 15 4 8 1015.3 1014.3 0.0
27/12:30pm 31.9 29.1 6.9 21 13.7 SSE 11 20 6 11 1015.6 1014.6 0.0
27/12:00pm 31.1 28.5 3.2 17 14.3 NNW 6 13 3 7 1016.0 1015.0 0.0
27/11:30am 30.4 28.5 7.6 24 12.5 S 7 13 4 7 1016.5 1015.4 0.0
27/11:00am 29.0 27.4 10.2 31 10.7 E 9 15 5 8 1016.7 1015.6 0.0
27/10:30am 28.3 27.8 12.6 38 9.3 NNW 7 13 4 7 1016.9 1015.8 0.0
27/10:00am 27.1 26.5 12.3 39 8.6 E 7 15 4 8 1017.2 1016.1 0.0
27/09:30am 26.3 24.9 10.9 38 8.8 ENE 9 17 5 9 1017.3 1016.2 0.0
27/09:00am 25.4 23.0 8.8 35 9.1 SE 11 17 6 9 1017.6 1016.5 0.0
27/08:30am 24.0 20.7 6.3 32 9.2 SSE 13 17 7 9 1017.6 1016.5 0.0
27/08:00am 23.2 20.7 4.7 30 9.3 SSE 7 11 4 6 1017.4 1016.3 0.0
27/07:30am 20.4 20.8 11.1 55 5.2 CALM 0 6 0 3 1017.1 1016.0 0.0
27/07:00am 17.2 16.4 11.2 68 3.3 S 6 7 3 4 1016.9 1015.8 0.0
27/06:30am 14.4 13.4 10.4 77 2.1 SSW 6 7 3 4 1016.3 1015.2 0.0
27/06:00am 13.8 13.3 10.6 81 1.7 NE 4 9 2 5 1015.7 1014.7 0.0
27/05:30am 14.0 13.2 9.6 75 2.3 NE 4 6 2 3 1015.6 1014.6 0.0
27/05:00am 14.6 13.2 9.0 69 2.9 SSE 6 9 3 5 1015.3 1014.3 0.0
27/04:30am 15.0 14.0 8.7 66 3.2 SSE 4 9 2 5 1014.9 1013.8 0.0
27/04:00am 17.6 14.8 8.5 55 4.7 E 13 15 7 8 1014.8 1013.7 0.0
27/03:30am 18.1 14.3 7.5 50 5.4 E 17 19 9 10 1014.7 1013.6 0.0
27/03:00am 17.5 13.8 9.4 59 4.3 E 19 20 10 11 1014.9 1013.8 0.0
27/02:30am 17.0 15.5 9.2 60 4.1 ESE 7 9 4 5 1015.1 1014.0 0.0
27/02:00am 18.4 16.2 9.5 56 4.7 ENE 11 13 6 7 1015.4 1014.4 0.0
27/01:30am 21.1 18.2 6.6 39 7.4 E 11 17 6 9 1015.7 1014.7 0.0
27/01:00am 20.7 18.2 8.0 44 6.7 E 11 15 6 8 1016.0 1015.0 0.0
27/12:30am 19.8 17.1 10.5 55 5.1 E 15 20 8 11 1016.3 1015.2 0.0
27/12:00am 18.9 16.6 10.5 58 4.6 ENE 13 15 7 8 1016.1 1015.1 0.0
 
Date/Time
EDT
Temp
°C
App
Temp
°C
Dew
Point
Rel
Hum
%
Delta-T
°C
Wind Press
QNH
hPa
Press
MSL
hPa
Rain
since 9 am
mm
Dir
 
Spd
km/h
Gust
km/h
Spd
kts
Gust
kts
26/11:30pm 20.4 20.0 8.1 45 6.5 CALM 0 6 0 3 1016.1 1015.1 0.0
26/11:00pm 21.5 19.8 10.0 48 6.3 W 9 13 5 7 1016.1 1015.1 0.0
26/10:30pm 22.6 21.6 10.4 46 6.8 N 6 9 3 5 1015.8 1014.8 0.0
26/10:00pm 22.0 20.4 10.2 47 6.5 NNW 9 19 5 10 1015.8 1014.8 0.0
26/09:30pm 24.2 22.5 9.8 40 8.0 N 9 9 5 5 1015.1 1014.0 0.0
26/09:00pm 24.2 22.6 10.1 41 7.8 N 9 11 5 6 1014.7 1013.6 0.0
26/08:30pm 25.3 23.3 10.0 38 8.5 N 11 13 6 7 1014.5 1013.4 0.0
26/08:00pm 26.0 23.9 9.8 36 9.0 NNW 11 13 6 7 1014.3 1013.2 0.0
26/07:30pm 29.2 26.7 9.8 30 11.0 WNW 13 17 7 9 1014.1 1013.0 0.0
26/07:00pm 31.0 27.6 9.3 26 12.3 WNW 17 22 9 12 1013.8 1012.7 0.0
26/06:30pm 32.1 28.4 10.2 26 12.7 W 20 26 11 14 1013.5 1012.4 0.0
26/06:00pm 30.9 28.7 13.2 34 10.7 NNW 17 24 9 13 1013.4 1012.3 0.0
26/05:30pm 30.6 28.6 13.8 35 10.2 NNW 17 24 9 13 1013.4 1012.3 0.0
26/05:00pm 30.8 28.7 13.6 35 10.4 NNW 17 24 9 13 1013.5 1012.4 0.0
26/04:30pm 31.0 29.3 13.7 34 10.5 WNW 15 28 8 15 1013.5 1012.4 0.0
26/04:00pm 31.3 30.0 13.6 34 10.7 NNW 13 19 7 10 1013.7 1012.6 0.0
26/03:30pm 31.2 30.1 14.4 36 10.3 N 13 20 7 11 1014.0 1012.9 0.0
26/03:00pm 31.2 29.3 15.2 38 9.9 NNW 19 26 10 14 1014.5 1013.4 0.0
26/02:30pm 30.2 28.1 15.1 40 9.3 NNW 20 28 11 15 1014.9 1013.8 0.0
26/02:00pm 29.9 28.1 15.6 42 8.9 N 19 30 10 16 1015.3 1014.3 0.0
26/01:30pm 30.0 28.1 15.7 42 8.9 NNW 20 32 11 17 1015.6 1014.6 0.0
26/01:00pm 31.3 29.4 16.8 41 9.2 NNW 22 32 12 17 1015.9 1014.9 0.0
26/12:30pm 29.6 27.7 15.7 43 8.7 N 20 28 11 15 1016.3 1015.2 0.0
26/12:00pm 29.8 26.7 15.5 42 8.9 N 26 37 14 20 1016.7 1015.6 0.0
26/11:30am 29.3 27.5 16.1 44 8.3 N 20 32 11 17 1016.8 1015.7 0.0
26/11:00am 28.4 25.8 16.0 47 7.7 N 24 39 13 21 1016.9 1015.8 0.0
26/10:30am 27.6 24.5 15.6 48 7.4 N 26 32 14 17 1017.0 1015.9 0.0
26/10:00am 27.1 25.2 15.8 50 7.0 N 20 26 11 14 1016.9 1015.8 0.0
26/09:30am 24.9 24.5 12.5 46 7.2 SSW 6 9 3 5 1016.9 1015.8 0.0
26/09:00am 23.6 23.6 11.3 46 7.0 N 2 6 1 3 1017.0 1015.9 -
26/08:30am 22.3 21.8 10.8 48 6.4 ESE 4 7 2 4 1017.0 1015.9 -
26/08:00am 21.0 19.2 9.6 48 6.2 SE 9 11 5 6 1016.9 1015.8 -
26/07:30am 20.4 17.8 9.3 49 6.0 SSE 13 19 7 10 1016.7 1015.6 -
26/07:00am 19.6 15.9 8.0 47 6.0 SE 17 20 9 11 1016.4 1015.3 -
26/06:30am 19.3 15.2 6.4 43 6.5 SE 17 22 9 12 1016.3 1015.2 -
26/06:00am 19.4 17.6 7.2 45 6.2 ESE 6 - 3 - 1015.9 1014.9 -
26/05:30am 19.4 14.7 5.1 39 7.0 SSE 19 22 10 12 1015.7 1014.7 -
26/05:00am 19.3 16.6 3.5 35 7.5 SE 7 9 4 5 1015.4 1014.4 -
26/04:30am 19.8 17.6 3.1 33 7.9 E 4 9 2 5 1015.5 1014.5 -
26/04:00am 20.0 17.4 3.3 33 8.0 SE 6 13 3 7 1015.3 1014.3 -
26/03:30am 20.4 16.8 3.2 32 8.2 SE 11 19 6 10 1015.3 1014.3 -
26/03:00am 20.5 17.9 3.3 32 8.2 SSE 6 13 3 7 1015.5 1014.5 0.0
26/02:30am 21.0 16.5 2.3 29 8.8 S 15 24 8 13 1015.3 1014.3 -
26/02:00am 21.2 16.4 2.5 29 8.9 S 17 22 9 12 1015.4 1014.4 -
26/01:30am 21.5 16.8 3.2 30 8.8 SSE 17 24 9 13 1015.6 1014.6 -
26/01:00am 21.6 17.6 4.7 33 8.4 SSE 15 20 8 11 1016.0 1015.0 -
26/12:30am 21.9 17.9 6.6 37 7.9 SSE 17 22 9 12 1016.3 1015.2 -
26/12:00am 22.4 19.0 7.8 39 7.7 SSE 15 20 8 11 1016.6 1015.5 -
 
Date/Time
EDT
Temp
°C
App
Temp
°C
Dew
Point
Rel
Hum
%
Delta-T
°C
Wind Press
QNH
hPa
Press
MSL
hPa
Rain
since 9 am
mm
Dir
 
Spd
km/h
Gust
km/h
Spd
kts
Gust
kts
25/11:30pm 22.6 19.8 8.7 41 7.5 SSE 13 17 7 9 1016.8 1015.7 -
25/11:00pm 22.9 19.9 7.8 38 8.0 SE 13 19 7 10 1016.8 1015.7 -

Other Formats:

Comma delimited format used in spreadsheet applications
http://www.bom.gov.au/fwo/IDN60801/IDN60801.95734.axf

JavaScript Object Notation format (JSON) in row-major order
http://www.bom.gov.au/fwo/IDN60801/IDN60801.95734.json